Time;durP1;ratioP1;P1;durP2;ratioP2;P2;SDS_P1;SDS_P2;PMS_P1;PMS_P2;Temp;Humidity;BMP_temperature;BMP_pressure;BME280_temperature;BME280_humidity;BME280_pressure;Samples;Min_cycle;Max_cycle;Signal;HPM_P1;HPM_P2
2022/06/26 00:01:50;;;;;;;2.92;2.70;;;17.90;99.90;;;;;;4998953;28;20188;-80
2022/06/26 00:04:15;;;;;;;2.60;2.40;;;17.80;99.90;;;;;;5000039;28;20272;-81
2022/06/26 00:06:41;;;;;;;2.75;2.47;;;17.80;99.90;;;;;;4998586;28;21121;-79
2022/06/26 00:09:07;;;;;;;2.30;2.10;;;17.80;99.90;;;;;;4999367;28;20203;-79
2022/06/26 00:11:33;;;;;;;2.70;2.50;;;17.90;99.90;;;;;;5012639;28;20689;-81
2022/06/26 00:13:59;;;;;;;3.08;2.28;;;17.80;99.90;;;;;;4997655;28;20316;-80
2022/06/26 00:16:24;;;;;;;3.55;2.17;;;17.90;99.90;;;;;;4998440;28;20188;-81
2022/06/26 00:18:50;;;;;;;2.60;2.40;;;17.90;99.90;;;;;;4997470;28;20210;-80
2022/06/26 00:21:15;;;;;;;2.63;2.15;;;17.90;99.90;;;;;;4997149;28;20283;-79
2022/06/26 00:23:41;;;;;;;4.30;2.60;;;17.90;99.90;;;;;;4997912;28;20729;-79
2022/06/26 00:26:07;;;;;;;2.90;2.70;;;17.80;99.90;;;;;;4998805;28;20186;-81
2022/06/26 00:28:32;;;;;;;3.60;2.60;;;17.70;99.90;;;;;;4997998;28;21079;-79
2022/06/26 00:30:58;;;;;;;3.08;2.80;;;17.50;99.90;;;;;;4997651;28;20188;-80
2022/06/26 00:33:24;;;;;;;3.35;2.70;;;17.40;99.90;;;;;;4997060;28;20185;-80
2022/06/26 00:35:49;;;;;;;4.18;3.22;;;17.40;99.90;;;;;;4997661;28;20650;-81
2022/06/26 00:38:15;;;;;;;2.83;2.63;;;17.40;99.90;;;;;;4995992;28;20188;-79
2022/06/26 00:40:42;;;;;;;4.72;2.67;;;17.40;99.90;;;;;;4999919;28;20204;-79
2022/06/26 00:43:08;;;;;;;3.35;3.08;;;17.40;99.90;;;;;;4997116;28;20286;-80
2022/06/26 00:45:33;;;;;;;5.13;3.30;;;17.50;99.90;;;;;;5013922;28;20180;-80
2022/06/26 00:47:59;;;;;;;4.03;3.17;;;17.50;99.90;;;;;;4997018;28;20273;-80
2022/06/26 00:50:25;;;;;;;5.15;2.80;;;17.50;99.90;;;;;;4997081;28;20210;-79
2022/06/26 00:52:53;;;;;;;3.10;2.88;;;17.50;99.90;;;;;;4995587;28;20293;-80
2022/06/26 00:55:19;;;;;;;3.00;2.80;;;17.60;99.90;;;;;;4998546;28;20195;-80
2022/06/26 00:57:45;;;;;;;4.95;3.28;;;17.60;99.90;;;;;;5012874;28;20192;-79
2022/06/26 01:00:13;;;;;;;6.72;3.33;;;17.60;99.90;;;;;;4998979;28;20208;-80
2022/06/26 01:02:40;;;;;;;3.45;2.70;;;17.60;99.90;;;;;;4997422;28;20214;-79
2022/06/26 01:05:08;;;;;;;3.53;2.78;;;17.60;99.90;;;;;;4997771;28;20406;-81
2022/06/26 01:07:34;;;;;;;3.33;2.67;;;17.60;99.90;;;;;;4997109;28;20204;-79
2022/06/26 01:10:02;;;;;;;4.30;3.30;;;17.60;99.90;;;;;;4997165;28;20287;-82
2022/06/26 01:12:27;;;;;;;2.78;2.58;;;17.60;99.90;;;;;;4997183;28;20229;-79
2022/06/26 01:14:53;;;;;;;2.97;2.60;;;17.60;99.90;;;;;;4997559;28;20179;-80
2022/06/26 01:17:18;;;;;;;3.03;2.80;;;17.60;99.90;;;;;;4995289;28;20721;-81
2022/06/26 01:19:45;;;;;;;3.80;3.03;;;17.60;99.90;;;;;;4996767;28;20217;-80
2022/06/26 01:22:10;;;;;;;3.25;3.00;;;17.60;99.90;;;;;;4996767;28;20183;-79
2022/06/26 01:24:36;;;;;;;3.90;2.90;;;17.60;99.90;;;;;;4996499;28;20560;-80
2022/06/26 01:27:02;;;;;;;3.22;2.90;;;17.40;99.90;;;;;;4998285;28;21321;-79
2022/06/26 01:29:28;;;;;;;3.33;3.00;;;17.20;99.90;;;;;;4995390;28;20701;-79
2022/06/26 01:31:53;;;;;;;3.53;3.10;;;17.00;99.90;;;;;;4997042;28;20295;-79
2022/06/26 01:34:19;;;;;;;4.65;3.30;;;17.00;99.90;;;;;;4995493;28;20222;-79
2022/06/26 01:36:45;;;;;;;4.22;3.20;;;17.10;99.90;;;;;;4997437;28;20188;-80
2022/06/26 01:39:10;;;;;;;3.30;3.00;;;17.10;99.90;;;;;;4996366;28;20223;-79
2022/06/26 01:41:36;;;;;;;4.80;3.10;;;17.20;99.90;;;;;;4997607;28;20180;-81
2022/06/26 01:44:02;;;;;;;4.40;3.35;;;17.20;99.90;;;;;;4996277;28;20184;-80
2022/06/26 01:46:27;;;;;;;4.70;3.05;;;17.30;99.90;;;;;;4996093;28;20186;-79
2022/06/26 01:48:53;;;;;;;4.15;3.47;;;17.30;99.90;;;;;;4995333;28;20216;-80
2022/06/26 01:51:19;;;;;;;4.13;2.63;;;17.20;99.90;;;;;;4979449;28;20214;-80
2022/06/26 01:53:44;;;;;;;6.07;3.80;;;17.20;99.90;;;;;;4997304;28;20188;-79
2022/06/26 01:56:10;;;;;;;3.38;3.17;;;17.20;99.90;;;;;;4996420;28;20190;-79
2022/06/26 01:58:36;;;;;;;5.00;3.60;;;17.20;99.90;;;;;;4995833;28;20187;-80
2022/06/26 02:01:03;;;;;;;3.42;3.03;;;17.10;99.90;;;;;;4995669;28;20192;-81
2022/06/26 02:03:29;;;;;;;3.35;3.10;;;17.20;99.90;;;;;;4996405;28;20208;-79
2022/06/26 02:05:55;;;;;;;3.60;3.30;;;17.10;99.90;;;;;;4995591;28;20218;-79
2022/06/26 02:08:20;;;;;;;4.03;3.55;;;17.00;99.90;;;;;;4978633;28;20208;-80
2022/06/26 02:13:36;;;;;;;4.00;3.60;;;16.80;99.90;;;;;;4996958;28;20222;-80
2022/06/26 02:16:22;;;;;;;4.22;3.90;;;16.90;99.90;;;;;;4996174;28;20682;-80
2022/06/26 02:18:53;;;;;;;3.58;3.28;;;17.00;99.90;;;;;;4995471;28;20623;-80
2022/06/26 02:21:21;;;;;;;4.13;3.72;;;16.90;99.90;;;;;;4997891;28;20181;-81
2022/06/26 02:23:49;;;;;;;5.80;3.90;;;16.80;99.90;;;;;;4997015;28;20560;-79
2022/06/26 02:26:17;;;;;;;3.60;3.30;;;16.60;99.90;;;;;;4995843;28;20188;-79
2022/06/26 02:28:43;;;;;;;6.03;3.53;;;16.70;99.90;;;;;;4995869;28;20221;-79
2022/06/26 02:31:08;;;;;;;6.40;3.40;;;16.70;99.90;;;;;;4995687;28;20280;-81
2022/06/26 02:33:38;;;;;;;4.90;3.97;;;16.70;99.90;;;;;;4995593;28;20188;-79
2022/06/26 02:36:05;;;;;;;4.13;3.67;;;16.70;99.90;;;;;;4994240;28;20190;-79
2022/06/26 02:38:31;;;;;;;4.75;3.90;;;16.60;99.90;;;;;;4995456;28;20343;-79
2022/06/26 02:40:57;;;;;;;5.55;3.97;;;16.50;99.90;;;;;;4995373;28;20195;-79
2022/06/26 02:43:23;;;;;;;7.82;3.47;;;16.50;99.90;;;;;;4996439;28;20180;-80
2022/06/26 02:45:50;;;;;;;5.60;3.83;;;16.40;99.90;;;;;;4996321;28;20565;-80
2022/06/26 02:48:16;;;;;;;4.53;3.85;;;16.30;99.90;;;;;;4995809;28;20278;-80
2022/06/26 02:50:42;;;;;;;6.30;4.22;;;16.40;99.90;;;;;;4997067;28;20212;-79
2022/06/26 02:53:08;;;;;;;5.68;3.67;;;16.30;99.90;;;;;;4995097;28;20266;-81
2022/06/26 02:55:33;;;;;;;5.10;3.75;;;16.50;99.90;;;;;;4994792;28;20215;-79
2022/06/26 02:57:59;;;;;;;7.18;3.80;;;16.50;99.90;;;;;;4996163;28;20184;-81
2022/06/26 03:00:25;;;;;;;4.32;3.92;;;16.50;99.90;;;;;;4994746;28;20771;-81
2022/06/26 03:02:51;;;;;;;8.82;3.90;;;16.40;99.90;;;;;;4995608;28;20183;-81
2022/06/26 03:05:17;;;;;;;5.80;4.22;;;16.50;99.90;;;;;;5010657;28;20190;-81
2022/06/26 03:07:43;;;;;;;3.85;3.30;;;16.50;99.90;;;;;;4994333;28;20203;-81
2022/06/26 03:10:08;;;;;;;4.45;3.47;;;16.50;99.90;;;;;;4996083;28;20585;-79
2022/06/26 03:12:41;;;;;;;3.53;3.22;;;16.50;99.90;;;;;;4996052;28;20285;-81
2022/06/26 03:15:07;;;;;;;4.85;3.67;;;16.50;99.90;;;;;;4997991;28;20187;-83
2022/06/26 03:17:32;;;;;;;5.47;3.33;;;16.50;99.90;;;;;;4998936;28;20266;-79
2022/06/26 03:19:58;;;;;;;4.00;3.25;;;16.50;99.90;;;;;;5000104;28;20709;-79
2022/06/26 03:22:24;;;;;;;4.47;3.35;;;16.50;99.90;;;;;;5001000;28;20649;-80
2022/06/26 03:24:49;;;;;;;4.13;3.58;;;16.60;99.90;;;;;;4998907;28;20650;-80
2022/06/26 03:27:15;;;;;;;4.85;3.33;;;16.50;99.90;;;;;;5000809;28;20298;-80
2022/06/26 03:29:40;;;;;;;5.05;3.28;;;16.40;99.90;;;;;;5000450;28;20199;-81
2022/06/26 03:32:06;;;;;;;8.20;3.60;;;16.50;99.90;;;;;;4998034;28;20275;-81
2022/06/26 03:34:32;;;;;;;3.45;3.15;;;16.60;99.90;;;;;;4998210;28;20180;-79
2022/06/26 03:36:57;;;;;;;4.90;3.10;;;16.60;99.90;;;;;;4997980;28;20180;-79
2022/06/26 03:39:23;;;;;;;3.95;3.40;;;16.70;99.90;;;;;;4998180;28;20201;-79
2022/06/26 03:42:00;;;;;;;6.82;3.25;;;16.80;99.90;;;;;;4998801;28;20198;-80
2022/06/26 03:44:26;;;;;;;5.68;3.50;;;16.80;99.90;;;;;;5000450;28;20257;-80
2022/06/26 03:46:51;;;;;;;3.38;3.08;;;16.80;99.90;;;;;;4999143;28;20191;-80
2022/06/26 03:49:17;;;;;;;6.75;3.20;;;16.90;99.90;;;;;;4998473;28;20199;-79
2022/06/26 03:51:43;;;;;;;6.78;3.13;;;16.90;99.90;;;;;;4998517;28;20534;-79
2022/06/26 03:54:08;;;;;;;7.43;3.10;;;17.00;99.90;;;;;;4998248;28;20195;-80
2022/06/26 03:56:34;;;;;;;3.95;3.50;;;17.00;99.90;;;;;;5000113;28;20262;-80
2022/06/26 03:58:59;;;;;;;4.15;3.83;;;17.00;99.90;;;;;;4999189;28;20208;-79
2022/06/26 04:01:25;;;;;;;5.53;3.53;;;17.10;99.90;;;;;;4999316;28;20262;-80
2022/06/26 04:03:50;;;;;;;5.85;3.70;;;17.20;99.90;;;;;;4998785;28;20319;-79
2022/06/26 04:06:16;;;;;;;5.00;3.08;;;17.30;99.90;;;;;;4998285;28;20188;-80
2022/06/26 04:08:41;;;;;;;4.35;3.00;;;17.40;99.90;;;;;;4998582;28;20760;-80
2022/06/26 04:11:07;;;;;;;3.53;3.13;;;17.50;99.90;;;;;;5000282;28;20180;-80
2022/06/26 04:13:33;;;;;;;2.78;2.60;;;17.50;99.90;;;;;;4998661;28;20176;-81
2022/06/26 04:15:58;;;;;;;3.30;2.70;;;17.60;99.90;;;;;;4997177;28;20184;-81
2022/06/26 04:18:24;;;;;;;4.47;3.70;;;17.70;99.90;;;;;;4998162;28;20191;-81
2022/06/26 04:20:49;;;;;;;3.78;3.15;;;17.70;99.90;;;;;;4999388;28;20674;-80
2022/06/26 04:23:15;;;;;;;4.63;3.92;;;17.80;99.90;;;;;;4999672;28;20179;-81
2022/06/26 04:25:41;;;;;;;3.50;3.20;;;17.70;99.90;;;;;;5014335;28;20197;-81
2022/06/26 04:28:07;;;;;;;3.95;3.47;;;17.80;99.90;;;;;;4996101;28;20496;-80
2022/06/26 04:30:33;;;;;;;4.65;4.20;;;17.70;99.90;;;;;;4997597;28;20611;-80
2022/06/26 04:32:59;;;;;;;5.80;3.90;;;17.70;99.90;;;;;;4997616;28;20177;-80
2022/06/26 04:35:24;;;;;;;3.70;3.40;;;17.70;99.90;;;;;;4997934;28;20188;-81
2022/06/26 04:37:50;;;;;;;4.30;3.90;;;17.70;99.90;;;;;;4998371;28;20186;-80
2022/06/26 04:40:16;;;;;;;4.15;3.72;;;17.80;99.90;;;;;;4997381;28;20230;-81
2022/06/26 04:42:43;;;;;;;4.38;3.97;;;17.90;99.90;;;;;;4996361;28;20626;-79
2022/06/26 04:45:10;;;;;;;6.40;4.05;;;17.90;99.90;;;;;;5013208;28;20192;-80
2022/06/26 04:47:36;;;;;;;4.07;3.70;;;17.90;99.90;;;;;;4996329;28;20207;-80
2022/06/26 04:50:03;;;;;;;4.55;3.40;;;18.00;99.90;;;;;;4998468;28;20206;-81
2022/06/26 04:52:28;;;;;;;4.00;3.63;;;18.10;99.90;;;;;;4998525;28;20259;-80
2022/06/26 04:54:54;;;;;;;3.88;3.58;;;18.10;99.90;;;;;;4997518;28;20758;-80
2022/06/26 04:57:20;;;;;;;4.35;3.95;;;18.10;99.90;;;;;;4996412;28;20175;-80
2022/06/26 04:59:45;;;;;;;4.68;2.83;;;18.20;99.90;;;;;;4997369;28;20214;-80
2022/06/26 05:02:11;;;;;;;3.28;3.03;;;18.20;99.90;;;;;;4997014;28;20184;-80
2022/06/26 05:04:37;;;;;;;3.42;3.13;;;18.20;99.90;;;;;;4996008;28;20653;-80
2022/06/26 05:07:03;;;;;;;2.85;2.65;;;18.50;99.90;;;;;;4996821;28;20191;-80
2022/06/26 05:09:30;;;;;;;5.95;2.60;;;19.30;99.90;;;;;;4996213;28;20258;-83
2022/06/26 05:11:56;;;;;;;2.92;2.40;;;20.20;99.90;;;;;;4996440;28;21262;-83
2022/06/26 05:14:22;;;;;;;3.05;2.65;;;20.70;95.50;;;;;;4996673;28;20186;-83
2022/06/26 05:16:47;;;;;;;3.60;2.80;;;21.10;75.70;;;;;;4997507;28;20204;-83
2022/06/26 05:19:13;;;;;;;2.92;2.72;;;20.90;91.00;;;;;;4995856;28;20212;-83
2022/06/26 05:21:39;;;;;;;2.80;2.58;;;20.80;96.30;;;;;;4994820;28;20658;-83
2022/06/26 05:24:04;;;;;;;2.65;2.40;;;20.60;99.90;;;;;;4997280;28;20216;-83
2022/06/26 05:26:30;;;;;;;3.47;2.60;;;20.70;99.90;;;;;;4995048;28;20180;-83
2022/06/26 05:28:56;;;;;;;3.22;2.45;;;21.00;87.80;;;;;;4996462;28;20573;-83
2022/06/26 05:31:22;;;;;;;3.08;2.15;;;21.30;92.70;;;;;;4995589;28;20180;-83
2022/06/26 05:33:48;;;;;;;3.05;2.60;;;21.90;55.90;;;;;;4996496;28;20229;-84
2022/06/26 05:36:14;;;;;;;4.78;2.15;;;22.60;7.80;;;;;;4997778;28;20176;-84
2022/06/26 05:38:40;;;;;;;5.03;2.80;;;23.20;1.00;;;;;;4995018;28;20752;-84
2022/06/26 05:41:06;;;;;;;2.55;2.35;;;23.70;1.00;;;;;;5012738;28;20582;-84
2022/06/26 05:43:32;;;;;;;2.47;1.90;;;23.90;1.00;;;;;;4995626;28;20184;-85
2022/06/26 05:45:58;;;;;;;2.50;2.00;;;24.20;1.00;;;;;;4995148;28;20193;-84
2022/06/26 05:48:24;;;;;;;1.88;1.65;;;24.30;99.90;;;;;;4998008;28;20207;-84
2022/06/26 05:50:50;;;;;;;2.97;1.88;;;24.60;99.90;;;;;;4995759;28;20184;-83
2022/06/26 05:53:17;;;;;;;2.20;1.80;;;24.40;99.90;;;;;;4996953;28;20821;-83
2022/06/26 05:55:43;;;;;;;2.38;1.92;;;24.60;1.00;;;;;;4994953;28;20255;-84
2022/06/26 05:58:09;;;;;;;1.90;1.75;;;24.90;1.00;;;;;;4995827;28;20681;-84
2022/06/26 06:00:35;;;;;;;2.13;1.90;;;24.90;1.00;;;;;;4995956;28;20227;-84
2022/06/26 06:03:00;;;;;;;3.30;2.10;;;24.50;1.00;;;;;;4996548;28;20188;-83
2022/06/26 06:05:26;;;;;;;2.17;1.98;;;24.00;1.00;;;;;;4995002;28;20205;-83
2022/06/26 06:07:53;;;;;;;2.30;1.90;;;23.70;1.00;;;;;;4994285;28;20195;-83
2022/06/26 06:10:19;;;;;;;2.63;1.83;;;23.50;1.00;;;;;;4994307;28;21254;-83
2022/06/26 06:12:46;;;;;;;2.13;1.92;;;23.40;1.00;;;;;;4996252;28;20208;-84
2022/06/26 06:15:12;;;;;;;1.98;1.85;;;23.30;1.00;;;;;;4996316;28;20266;-84
2022/06/26 06:17:40;;;;;;;2.45;2.20;;;23.20;1.00;;;;;;4996534;28;20264;-83
2022/06/26 06:20:13;;;;;;;2.28;2.08;;;23.50;1.00;;;;;;4995663;28;20211;-83
2022/06/26 06:22:45;;;;;;;2.35;2.10;;;24.10;1.00;;;;;;4995276;28;20191;-84
2022/06/26 06:25:11;;;;;;;1.67;1.58;;;24.90;1.00;;;;;;4994974;28;20183;-83
2022/06/26 06:27:38;;;;;;;2.38;1.60;;;25.40;1.00;;;;;;5009581;28;20275;-84
2022/06/26 06:30:06;;;;;;;3.45;1.90;;;25.70;99.90;;;;;;4997792;28;20564;-84
2022/06/26 06:32:31;;;;;;;1.85;1.67;;;26.30;36.80;;;;;;4995683;28;20542;-84
2022/06/26 06:34:57;;;;;;;2.00;1.80;;;26.60;1.00;;;;;;4994722;28;20184;-84
2022/06/26 06:37:23;;;;;;;2.17;1.80;;;27.30;1.00;;;;;;4991880;28;20327;-85
2022/06/26 06:39:48;;;;;;;1.58;1.48;;;27.50;99.90;;;;;;4985619;28;20211;-84
2022/06/26 06:42:14;;;;;;;1.70;1.60;;;28.00;1.00;;;;;;4988868;28;20195;-84
2022/06/26 06:44:40;;;;;;;1.80;1.70;;;28.30;1.00;;;;;;4994039;28;20184;-84
2022/06/26 06:47:06;;;;;;;2.33;1.50;;;28.80;1.00;;;;;;4988099;28;20187;-84
2022/06/26 06:49:32;;;;;;;1.73;1.63;;;29.20;1.00;;;;;;4990099;28;20284;-84
2022/06/26 06:51:58;;;;;;;6.18;2.17;;;29.30;1.00;;;;;;4991148;28;20233;-84
2022/06/26 06:54:24;;;;;;;1.90;1.67;;;29.20;99.90;;;;;;4991215;28;20565;-84
2022/06/26 06:56:50;;;;;;;2.85;1.67;;;29.00;1.00;;;;;;4991089;28;20174;-84
2022/06/26 06:59:16;;;;;;;3.33;1.60;;;29.00;1.00;;;;;;4991435;28;20222;-85
2022/06/26 07:01:41;;;;;;;1.77;1.67;;;29.20;1.00;;;;;;4989691;28;20587;-84
2022/06/26 07:04:07;;;;;;;1.70;1.60;;;29.40;1.00;;;;;;4987207;28;20190;-86
2022/06/26 07:06:33;;;;;;;1.92;1.73;;;29.50;99.90;;;;;;4984555;28;20546;-84
2022/06/26 07:08:59;;;;;;;1.80;1.70;;;29.50;99.90;;;;;;4990841;28;20218;-84
2022/06/26 07:11:24;;;;;;;1.75;1.65;;;29.50;99.90;;;;;;4984732;28;20206;-84
2022/06/26 07:13:50;;;;;;;2.22;1.58;;;29.20;1.00;;;;;;4992419;28;20724;-86
2022/06/26 07:16:15;;;;;;;1.58;1.48;;;29.30;99.90;;;;;;4994437;28;20541;-84
2022/06/26 07:18:41;;;;;;;1.60;1.50;;;30.10;1.00;;;;;;4985956;28;20489;-84
2022/06/26 07:21:07;;;;;;;1.88;1.77;;;30.50;1.00;;;;;;4995945;28;20564;-84
2022/06/26 07:23:33;;;;;;;1.60;1.50;;;30.50;1.00;;;;;;4989162;28;20190;-84
2022/06/26 07:25:59;;;;;;;2.08;1.70;;;30.50;1.00;;;;;;4991440;28;20187;-85
2022/06/26 07:28:24;;;;;;;1.85;1.70;;;30.20;1.00;;;;;;4989733;28;20774;-84
2022/06/26 07:30:50;;;;;;;1.73;1.63;;;30.00;1.00;;;;;;4985062;28;20449;-85
2022/06/26 07:36:00;;;;;;;1.95;1.73;;;30.80;99.90;;;;;;4989359;28;20198;-84
2022/06/26 07:38:25;;;;;;;3.28;1.83;;;30.20;1.00;;;;;;4995639;28;20270;-83
2022/06/26 07:40:51;;;;;;;1.80;1.70;;;30.00;99.90;;;;;;4991220;28;20188;-82
2022/06/26 07:43:17;;;;;;;2.00;1.90;;;30.40;99.90;;;;;;5006223;28;20188;-83
2022/06/26 07:45:43;;;;;;;4.53;2.10;;;30.00;1.00;;;;;;4990422;28;20252;-83
2022/06/26 07:48:08;;;;;;;4.22;1.98;;;29.50;99.90;;;;;;4994298;28;20299;-83
2022/06/26 07:50:34;;;;;;;2.10;1.88;;;29.30;1.00;;;;;;4990122;28;20725;-82
2022/06/26 07:52:59;;;;;;;2.15;2.03;;;28.90;99.90;;;;;;4992372;28;20625;-83
2022/06/26 07:55:25;;;;;;;2.10;1.77;;;28.70;1.00;;;;;;4992187;28;20200;-85
2022/06/26 07:57:50;;;;;;;1.67;1.58;;;28.40;1.00;;;;;;4991542;28;20262;-82
2022/06/26 08:00:16;;;;;;;2.10;1.80;;;28.20;1.00;;;;;;4989255;28;20696;-82
2022/06/26 08:02:42;;;;;;;1.80;1.70;;;28.10;1.00;;;;;;4993063;28;20196;-84
2022/06/26 08:05:08;;;;;;;2.55;1.95;;;28.10;1.00;;;;;;5009247;28;20180;-84
2022/06/26 08:07:33;;;;;;;1.58;1.48;;;28.20;1.00;;;;;;4996098;28;20615;-83
2022/06/26 08:09:59;;;;;;;1.65;1.55;;;28.50;1.00;;;;;;4997867;28;20211;-83
2022/06/26 08:12:25;;;;;;;1.80;1.70;;;28.60;1.00;;;;;;4998485;28;20270;-82
2022/06/26 08:14:50;;;;;;;1.85;1.73;;;28.80;99.90;;;;;;4996231;28;20191;-82
2022/06/26 08:17:16;;;;;;;4.10;1.80;;;29.00;99.90;;;;;;4995045;28;20188;-83
2022/06/26 08:19:42;;;;;;;2.13;1.67;;;29.00;1.00;;;;;;4995607;28;20805;-83
2022/06/26 08:22:07;;;;;;;1.50;1.40;;;28.70;99.90;;;;;;4996608;28;20188;-82
2022/06/26 08:24:35;;;;;;;3.58;1.60;;;28.50;1.00;;;;;;4996154;28;20188;-83
2022/06/26 08:27:01;;;;;;;2.00;1.75;;;28.30;1.00;;;;;;4995460;28;20255;-83
2022/06/26 08:29:27;;;;;;;2.60;1.70;;;28.40;1.00;;;;;;4994687;28;20764;-82
2022/06/26 08:31:53;;;;;;;2.17;1.98;;;28.50;1.00;;;;;;4995029;28;20237;-83
2022/06/26 08:34:20;;;;;;;1.70;1.60;;;28.60;1.00;;;;;;4993141;28;20188;-83
2022/06/26 08:36:46;;;;;;;1.77;1.67;;;28.80;1.00;;;;;;4997200;28;20188;-83
2022/06/26 08:39:12;;;;;;;3.83;1.75;;;28.90;1.00;;;;;;4996737;28;20238;-83
2022/06/26 08:41:44;;;;;;;2.45;2.10;;;29.00;1.00;;;;;;4991134;28;20211;-83
2022/06/26 08:44:10;;;;;;;2.33;2.13;;;29.00;1.00;;;;;;4990093;28;20363;-82
2022/06/26 08:46:38;;;;;;;1.90;1.80;;;28.70;72.60;;;;;;4992630;28;20729;-82
2022/06/26 08:49:12;;;;;;;3.50;2.10;;;28.50;1.00;;;;;;4993359;28;20219;-82
2022/06/26 08:51:40;;;;;;;2.40;2.15;;;28.10;18.30;;;;;;4987989;28;20184;-79
2022/06/26 08:54:06;;;;;;;2.35;2.15;;;28.20;99.90;;;;;;4987052;28;20206;-79
2022/06/26 08:56:33;;;;;;;4.65;2.30;;;28.00;1.00;;;;;;4989422;28;20263;-80
2022/06/26 08:58:59;;;;;;;2.17;2.08;;;28.10;1.00;;;;;;4997619;28;20892;-78
2022/06/26 09:01:25;;;;;;;2.85;2.28;;;27.90;99.90;;;;;;4986769;28;20199;-80
2022/06/26 09:03:50;;;;;;;2.15;2.05;;;27.80;99.90;;;;;;4987862;28;20534;-79
2022/06/26 09:06:16;;;;;;;2.70;2.50;;;27.60;99.90;;;;;;4996058;28;20180;-79
2022/06/26 09:08:43;;;;;;;2.30;2.20;;;27.60;99.90;;;;;;4993352;28;20227;-78
2022/06/26 09:11:09;;;;;;;2.45;2.25;;;27.50;99.90;;;;;;4993266;28;20177;-79
2022/06/26 09:13:38;;;;;;;2.70;2.30;;;27.60;99.90;;;;;;4991452;28;20332;-79
2022/06/26 09:16:04;;;;;;;2.10;2.00;;;27.60;99.90;;;;;;4992177;28;20464;-83
2022/06/26 09:18:35;;;;;;;2.83;2.08;;;27.70;99.90;;;;;;4990098;28;20180;-80
2022/06/26 09:21:01;;;;;;;2.38;2.00;;;27.70;99.90;;;;;;4991564;28;20191;-81
2022/06/26 09:23:27;;;;;;;1.90;1.80;;;27.70;1.00;;;;;;4997791;28;20268;-82
2022/06/26 09:25:52;;;;;;;2.67;1.98;;;27.80;99.90;;;;;;4992446;28;20756;-82
2022/06/26 09:28:22;;;;;;;2.10;2.00;;;27.90;99.90;;;;;;4993911;28;20607;-82
2022/06/26 09:30:53;;;;;;;2.10;2.00;;;27.90;93.50;;;;;;4995048;28;20185;-80
2022/06/26 09:33:21;;;;;;;2.72;2.50;;;27.70;99.90;;;;;;4993626;28;20649;-81
2022/06/26 09:35:47;;;;;;;2.22;2.10;;;27.50;99.90;;;;;;4991685;28;20646;-80
2022/06/26 09:38:18;;;;;;;2.17;2.08;;;27.30;1.00;;;;;;4993436;28;20196;-79
2022/06/26 09:41:08;;;;;;;3.15;2.03;;;27.00;1.00;;;;;;4994883;28;20243;-80
2022/06/26 09:43:37;;;;;;;2.15;1.95;;;26.90;1.00;;;;;;5007503;28;20570;-80
2022/06/26 09:46:06;;;;;;;4.20;3.80;;;26.90;1.00;;;;;;4985867;28;20588;-80
2022/06/26 09:48:31;;;;;;;2.35;2.20;;;26.80;1.00;;;;;;4995018;28;20219;-80
2022/06/26 09:50:58;;;;;;;3.58;3.05;;;26.70;79.70;;;;;;4996301;28;20195;-80
2022/06/26 09:53:25;;;;;;;2.60;2.40;;;26.60;1.00;;;;;;4988156;28;20232;-80
2022/06/26 09:55:54;;;;;;;2.60;2.20;;;26.60;99.90;;;;;;4987761;28;20196;-79
2022/06/26 09:58:21;;;;;;;2.58;2.08;;;26.70;99.90;;;;;;4985980;28;20784;-79
2022/06/26 10:06:25;;;;;;;2.47;2.20;;;26.60;99.90;;;;;;4991115;28;20234;-79
2022/06/26 10:06:26;;;;;;;2.20;1.75;;;26.60;1.00;;;;;;4996584;28;20658;-79
2022/06/26 10:08:55;;;;;;;2.35;2.25;;;26.50;99.90;;;;;;4993490;28;20226;-79
2022/06/26 10:11:24;;;;;;;1.85;1.75;;;26.60;99.90;;;;;;4996074;28;20287;-79
2022/06/26 10:13:52;;;;;;;2.33;2.13;;;26.50;99.90;;;;;;5011495;28;20193;-79
2022/06/26 10:16:38;;;;;;;2.75;1.85;;;26.40;99.90;;;;;;4997255;28;20208;-79
2022/06/26 10:19:28;;;;;;;2.10;2.00;;;26.30;1.00;;;;;;4995268;28;20295;-78
2022/06/26 10:21:54;;;;;;;2.05;1.92;;;26.20;99.90;;;;;;4994584;28;20188;-79
2022/06/26 10:24:20;;;;;;;2.22;2.00;;;26.10;99.90;;;;;;4994281;28;20195;-79
2022/06/26 10:26:53;;;;;;;2.00;1.90;;;26.10;1.00;;;;;;4995090;28;20183;-82
2022/06/26 10:29:19;;;;;;;2.15;2.05;;;26.10;1.00;;;;;;4993762;28;20724;-79
2022/06/26 10:31:48;;;;;;;3.17;2.10;;;26.20;99.90;;;;;;4989676;28;20216;-81
2022/06/26 10:34:15;;;;;;;6.35;2.03;;;26.20;1.00;;;;;;4987495;28;20180;-79
2022/06/26 10:36:41;;;;;;;2.28;2.08;;;26.20;99.90;;;;;;4982492;28;20249;-80
2022/06/26 10:39:07;;;;;;;2.63;1.90;;;26.30;99.90;;;;;;4991938;28;20716;-79
2022/06/26 10:44:59;;;;;;;2.33;1.90;;;26.60;99.90;;;;;;4991068;28;20565;-80
2022/06/26 10:47:37;;;;;;;2.03;1.90;;;26.60;1.00;;;;;;4988039;28;20747;-79
2022/06/26 10:50:03;;;;;;;2.20;2.00;;;26.70;99.90;;;;;;5008091;28;20709;-79
2022/06/26 10:52:32;;;;;;;2.67;2.00;;;26.90;1.00;;;;;;4996530;28;20203;-80
2022/06/26 10:54:59;;;;;;;3.47;2.13;;;27.10;1.00;;;;;;5012041;28;20670;-80
2022/06/26 10:57:37;;;;;;;3.35;2.00;;;27.40;99.90;;;;;;4994690;28;20234;-80
2022/06/26 11:00:05;;;;;;;2.08;1.98;;;27.80;1.00;;;;;;5010745;28;20320;-80
2022/06/26 11:02:36;;;;;;;2.17;2.05;;;28.00;99.90;;;;;;4996478;28;20179;-79
2022/06/26 11:05:04;;;;;;;1.98;1.88;;;28.10;99.90;;;;;;4997364;28;20190;-79
2022/06/26 11:07:45;;;;;;;2.05;1.95;;;28.30;99.90;;;;;;4994426;28;20207;-80
2022/06/26 11:10:12;;;;;;;1.95;1.85;;;28.40;1.00;;;;;;4990350;28;20293;-81
2022/06/26 11:12:42;;;;;;;3.53;2.05;;;28.70;99.90;;;;;;4982921;28;20227;-80
2022/06/26 11:15:24;;;;;;;2.10;1.90;;;28.80;1.00;;;;;;4987454;28;20700;-81
2022/06/26 11:18:07;;;;;;;1.75;1.65;;;28.80;1.00;;;;;;4985413;28;20460;-81
2022/06/26 11:20:46;;;;;;;3.45;2.00;;;28.90;99.90;;;;;;4996750;28;20242;-80
2022/06/26 11:23:36;;;;;;;1.95;1.85;;;29.30;99.90;;;;;;4986592;28;20227;-80
2022/06/26 11:26:11;;;;;;;1.92;1.75;;;29.40;99.90;;;;;;4993735;28;20499;-80
2022/06/26 11:28:44;;;;;;;2.45;2.03;;;29.70;99.90;;;;;;4997833;28;20199;-80
2022/06/26 11:31:21;;;;;;;2.92;1.90;;;29.70;95.40;;;;;;4987296;28;20217;-80
2022/06/26 11:33:46;;;;;;;1.98;1.88;;;29.60;99.90;;;;;;4986691;28;20180;-80
2022/06/26 11:36:17;;;;;;;2.30;2.10;;;29.40;16.20;;;;;;4993803;28;20509;-81
2022/06/26 11:38:54;;;;;;;3.05;2.25;;;29.30;99.90;;;;;;4997941;28;20261;-80
2022/06/26 11:41:21;;;;;;;2.00;1.90;;;29.20;99.90;;;;;;4988848;28;20188;-82
2022/06/26 11:43:50;;;;;;;1.80;1.70;;;28.90;99.90;;;;;;4996776;28;20700;-80
2022/06/26 11:46:16;;;;;;;3.42;2.08;;;28.50;99.90;;;;;;4994453;28;20275;-80
2022/06/26 11:48:42;;;;;;;2.75;2.20;;;28.40;1.00;;;;;;4993313;28;20592;-80
2022/06/26 11:51:12;;;;;;;3.85;2.00;;;28.40;1.00;;;;;;4988684;28;20283;-79
2022/06/26 11:53:38;;;;;;;2.05;1.95;;;28.40;1.00;;;;;;4997710;28;20218;-79
2022/06/26 11:56:04;;;;;;;2.55;2.30;;;28.30;1.00;;;;;;4990684;28;20190;-79
2022/06/26 11:58:34;;;;;;;2.28;2.08;;;28.30;1.00;;;;;;4985109;28;20188;-79
2022/06/26 12:01:05;;;;;;;2.63;2.42;;;28.20;1.00;;;;;;4992407;28;20188;-80
2022/06/26 12:03:30;;;;;;;2.20;2.10;;;28.20;1.00;;;;;;4986359;28;20547;-79
2022/06/26 12:05:56;;;;;;;2.25;2.05;;;28.20;1.00;;;;;;4994217;28;20191;-79
2022/06/26 12:08:22;;;;;;;3.28;1.92;;;28.30;99.90;;;;;;4994929;28;20214;-80
2022/06/26 12:10:52;;;;;;;3.35;2.22;;;28.30;1.00;;;;;;4991542;28;20184;-80
2022/06/26 12:13:29;;;;;;;2.40;2.13;;;28.40;99.90;;;;;;4992316;28;20697;-81
2022/06/26 12:16:01;;;;;;;2.50;2.30;;;28.40;99.90;;;;;;4987802;28;20191;-80
2022/06/26 12:18:26;;;;;;;3.28;2.00;;;28.20;99.90;;;;;;4994976;28;20613;-80
2022/06/26 12:20:52;;;;;;;2.05;1.95;;;28.00;1.00;;;;;;4987989;28;20363;-79
2022/06/26 12:23:29;;;;;;;2.00;1.90;;;28.00;1.00;;;;;;5010274;28;20716;-79
2022/06/26 12:26:08;;;;;;;2.60;2.10;;;27.90;1.00;;;;;;4988869;28;20758;-79
2022/06/26 12:29:01;;;;;;;1.92;1.80;;;28.10;99.90;;;;;;4990564;28;20263;-80
2022/06/26 12:31:27;;;;;;;1.95;1.85;;;28.00;1.00;;;;;;4992062;28;20193;-79
2022/06/26 12:33:53;;;;;;;1.80;1.70;;;28.00;99.90;;;;;;4985746;28;20196;-80
2022/06/26 12:36:19;;;;;;;2.38;2.10;;;28.10;1.00;;;;;;4988214;28;20195;-80
2022/06/26 12:38:46;;;;;;;2.10;2.00;;;28.10;1.00;;;;;;4993025;28;20207;-80
2022/06/26 12:41:19;;;;;;;2.20;2.00;;;28.10;99.90;;;;;;4987114;28;20443;-80
2022/06/26 12:43:49;;;;;;;3.28;1.90;;;28.10;1.00;;;;;;4995228;28;20180;-79
2022/06/26 12:46:15;;;;;;;2.33;2.13;;;28.20;1.00;;;;;;4997185;28;20276;-81
2022/06/26 12:48:42;;;;;;;2.20;2.10;;;28.20;1.00;;;;;;4991037;28;20211;-79
2022/06/26 12:51:08;;;;;;;1.90;1.80;;;28.30;99.90;;;;;;4985620;28;20183;-79
2022/06/26 12:53:34;;;;;;;3.50;2.08;;;28.20;1.00;;;;;;4996833;28;20184;-81
2022/06/26 12:55:59;;;;;;;1.95;1.85;;;28.20;1.00;;;;;;4999505;28;20187;-83
2022/06/26 12:58:26;;;;;;;1.70;1.60;;;28.10;1.00;;;;;;4995474;28;20176;-81
2022/06/26 13:00:51;;;;;;;3.05;2.30;;;28.20;1.00;;;;;;4993124;28;20208;-82
2022/06/26 13:03:17;;;;;;;2.00;1.90;;;28.20;99.90;;;;;;4996142;28;20587;-81